Time;durP1;ratioP1;P1;durP2;ratioP2;P2;SDS_P1;SDS_P2;PMS_P1;PMS_P2;Temp;Humidity;BMP_temperature;BMP_pressure;BME280_temperature;BME280_humidity;BME280_pressure;Samples;Min_cycle;Max_cycle;Signal;HPM_P1;HPM_P2
2022/10/12 00:00:53;;;;;;;10.48;4.85;;;7.10;99.90;;;;;;5053436;28;20448;-65
2022/10/12 00:03:20;;;;;;;9.75;5.10;;;7.10;99.90;;;;;;5053944;28;20048;-65
2022/10/12 00:05:46;;;;;;;10.07;5.03;;;7.10;99.90;;;;;;5053475;28;20441;-65
2022/10/12 00:08:12;;;;;;;9.68;5.00;;;7.10;99.90;;;;;;5052550;28;20087;-65
2022/10/12 00:10:42;;;;;;;9.73;4.97;;;7.10;99.90;;;;;;5053899;28;20044;-65
2022/10/12 00:13:08;;;;;;;9.40;5.20;;;7.10;99.90;;;;;;5036703;28;20041;-65
2022/10/12 00:15:40;;;;;;;11.63;6.03;;;7.10;99.90;;;;;;5052291;28;20047;-65
2022/10/12 00:18:07;;;;;;;10.50;5.55;;;7.00;99.90;;;;;;5053027;28;20124;-65
2022/10/12 00:20:33;;;;;;;10.65;5.90;;;7.10;99.90;;;;;;5052957;28;20044;-65
2022/10/12 00:22:59;;;;;;;8.80;5.85;;;7.00;99.90;;;;;;5052306;28;20083;-65
2022/10/12 00:25:25;;;;;;;9.43;4.70;;;7.00;99.90;;;;;;5054047;28;20080;-65
2022/10/12 00:27:50;;;;;;;8.32;4.60;;;7.00;99.90;;;;;;5054318;28;20078;-65
2022/10/12 00:30:16;;;;;;;10.35;4.40;;;7.00;99.90;;;;;;5052050;28;20047;-65
2022/10/12 00:32:42;;;;;;;8.82;5.50;;;7.00;99.90;;;;;;5054352;28;20132;-65
2022/10/12 00:35:08;;;;;;;7.55;4.50;;;7.00;99.90;;;;;;5052714;28;20033;-65
2022/10/12 00:37:33;;;;;;;10.30;4.68;;;7.00;99.90;;;;;;5053544;28;20050;-65
2022/10/12 00:39:59;;;;;;;9.77;4.97;;;7.00;99.90;;;;;;5053054;28;20037;-65
2022/10/12 00:42:24;;;;;;;8.00;4.63;;;7.00;99.90;;;;;;5052976;28;20490;-65
2022/10/12 00:44:51;;;;;;;8.75;4.40;;;6.90;99.90;;;;;;5052950;28;20470;-65
2022/10/12 00:47:38;;;;;;;8.38;4.63;;;6.90;99.90;;;;;;5053853;28;20037;-65
2022/10/12 00:50:21;;;;;;;8.68;4.88;;;6.90;99.90;;;;;;5052097;28;20041;-65
2022/10/12 00:53:27;;;;;;;8.52;3.97;;;6.90;99.90;;;;;;5052442;28;20052;-65
2022/10/12 00:56:00;;;;;;;9.77;5.07;;;6.90;99.90;;;;;;5068375;28;20528;-65
2022/10/12 00:58:30;;;;;;;10.95;5.00;;;6.90;99.90;;;;;;5034007;28;20040;-65
2022/10/12 01:01:05;;;;;;;7.32;4.85;;;6.90;99.90;;;;;;5043372;28;20055;-65
2022/10/12 01:03:31;;;;;;;;;;;6.90;99.90;;;;;;5052994;28;20048;-65
2022/10/12 01:05:58;;;;;;;10.90;4.93;;;6.90;99.90;;;;;;5051326;28;19917;-65
2022/10/12 01:08:24;;;;;;;12.30;4.47;;;6.80;99.90;;;;;;5052449;28;20044;-65
2022/10/12 01:10:49;;;;;;;8.10;4.75;;;6.90;99.90;;;;;;5052159;28;20588;-65
2022/10/12 01:13:15;;;;;;;10.30;4.35;;;6.90;99.90;;;;;;5051139;28;20124;-65
2022/10/12 01:16:16;;;;;;;8.38;4.65;;;6.90;99.90;;;;;;5052281;28;20239;-65
2022/10/12 01:18:53;;;;;;;7.50;4.70;;;6.90;99.90;;;;;;5052176;28;20045;-65
2022/10/12 01:21:20;;;;;;;9.98;4.75;;;6.90;99.90;;;;;;5053443;28;20098;-65
2022/10/12 01:24:23;;;;;;;7.85;4.82;;;6.90;99.90;;;;;;5053445;28;20477;-66
2022/10/12 01:27:14;;;;;;;7.35;4.13;;;6.90;99.90;;;;;;5052265;28;20052;-65
2022/10/12 01:30:07;;;;;;;9.27;4.82;;;6.90;99.90;;;;;;5052168;28;20081;-65
2022/10/12 01:32:43;;;;;;;8.18;4.80;;;7.00;99.90;;;;;;5052226;28;20052;-65
2022/10/12 01:35:13;;;;;;;6.55;4.57;;;6.90;99.90;;;;;;5053096;28;20045;-65
2022/10/12 01:37:58;;;;;;;10.90;5.18;;;6.90;99.90;;;;;;5052164;28;20470;-65
2022/10/12 01:40:41;;;;;;;10.43;4.80;;;6.90;99.90;;;;;;5051126;28;20043;-65
2022/10/12 01:43:07;;;;;;;10.88;5.18;;;7.00;99.90;;;;;;5035114;28;20429;-65
2022/10/12 01:45:33;;;;;;;9.23;4.43;;;6.90;99.90;;;;;;5051475;28;20037;-65
2022/10/12 01:47:59;;;;;;;9.73;5.30;;;7.00;99.90;;;;;;5050569;28;20118;-65
2022/10/12 01:50:37;;;;;;;12.43;5.78;;;7.00;99.90;;;;;;5051411;28;20120;-65
2022/10/12 01:53:21;;;;;;;7.80;4.38;;;7.00;99.90;;;;;;5051311;28;20075;-65
2022/10/12 01:56:06;;;;;;;6.53;4.22;;;7.00;99.90;;;;;;5033970;28;20045;-65
2022/10/12 01:58:54;;;;;;;7.43;4.45;;;7.00;99.90;;;;;;5051495;28;20055;-65
2022/10/12 02:01:26;;;;;;;8.45;5.13;;;7.00;99.90;;;;;;5050222;28;20044;-65
2022/10/12 02:04:14;;;;;;;8.82;4.40;;;7.00;99.90;;;;;;5050592;28;20494;-65
2022/10/12 02:06:48;;;;;;;8.05;5.28;;;7.00;99.90;;;;;;5034878;28;20040;-65
2022/10/12 02:09:45;;;;;;;12.43;5.43;;;7.00;99.90;;;;;;5050295;28;20049;-65
2022/10/12 02:12:19;;;;;;;10.52;6.18;;;6.90;99.90;;;;;;5050804;28;20106;-65
2022/10/12 02:14:49;;;;;;;8.43;5.13;;;6.90;99.90;;;;;;5050318;28;20045;-65
2022/10/12 02:17:17;;;;;;;9.07;4.95;;;6.90;99.90;;;;;;5050977;28;20045;-65
2022/10/12 02:19:49;;;;;;;11.27;5.90;;;6.90;99.90;;;;;;5052329;28;20041;-65
2022/10/12 02:22:15;;;;;;;8.10;5.60;;;6.90;99.90;;;;;;5051579;28;20055;-65
2022/10/12 02:24:46;;;;;;;8.63;4.97;;;7.00;99.90;;;;;;5052254;28;20045;-65
2022/10/12 02:27:14;;;;;;;10.23;4.93;;;7.00;99.90;;;;;;5034283;28;20049;-65
2022/10/12 02:29:42;;;;;;;9.00;5.72;;;7.00;99.90;;;;;;5050166;28;20037;-65
2022/10/12 02:32:28;;;;;;;12.00;5.80;;;7.00;99.90;;;;;;5052258;28;20047;-65
2022/10/12 02:35:06;;;;;;;11.50;5.18;;;7.00;99.90;;;;;;5051063;28;20397;-65
2022/10/12 02:37:48;;;;;;;9.25;4.80;;;7.00;99.90;;;;;;5050166;28;20497;-65
2022/10/12 02:40:33;;;;;;;9.23;5.47;;;7.00;99.90;;;;;;5050912;28;20037;-65
2022/10/12 02:43:18;;;;;;;13.30;5.93;;;7.00;99.90;;;;;;5049784;28;20441;-65
2022/10/12 02:45:46;;;;;;;11.30;5.97;;;7.00;99.90;;;;;;5051114;28;20400;-65
2022/10/12 02:48:18;;;;;;;10.23;5.30;;;7.00;99.90;;;;;;5050832;28;20488;-65
2022/10/12 02:50:45;;;;;;;15.05;5.75;;;7.00;99.90;;;;;;5050078;28;20106;-65
2022/10/12 02:53:11;;;;;;;11.23;5.75;;;7.00;99.90;;;;;;5050672;28;20033;-65
2022/10/12 02:55:46;;;;;;;8.98;5.65;;;7.00;99.90;;;;;;5051095;28;20488;-65
2022/10/12 02:58:12;;;;;;;12.32;5.25;;;7.00;99.90;;;;;;5049941;28;20037;-65
2022/10/12 03:00:37;;;;;;;10.13;5.50;;;7.00;99.90;;;;;;5050741;28;20056;-65
2022/10/12 03:03:03;;;;;;;9.27;5.40;;;7.00;99.90;;;;;;5050461;28;20446;-65
2022/10/12 03:05:28;;;;;;;10.25;5.60;;;7.00;99.90;;;;;;5051109;28;20454;-65
2022/10/12 03:07:54;;;;;;;10.50;5.82;;;7.00;99.90;;;;;;5051849;28;20378;-65
2022/10/12 03:10:20;;;;;;;9.93;5.55;;;7.00;99.90;;;;;;5051664;28;20041;-65
2022/10/12 03:12:45;;;;;;;13.48;6.53;;;7.00;99.90;;;;;;5049704;28;20037;-65
2022/10/12 03:15:11;;;;;;;7.60;4.78;;;7.00;99.90;;;;;;5037556;28;20037;-65
2022/10/12 03:17:36;;;;;;;12.02;7.10;;;7.00;99.90;;;;;;5038234;28;20041;-65
2022/10/12 03:20:02;;;;;;;10.10;5.38;;;7.00;99.90;;;;;;5054670;28;20033;-65
2022/10/12 03:22:28;;;;;;;13.45;6.03;;;7.00;99.90;;;;;;5054367;28;20072;-65
2022/10/12 03:24:54;;;;;;;10.90;5.18;;;6.90;99.90;;;;;;5054017;28;20053;-65
2022/10/12 03:27:19;;;;;;;9.57;5.38;;;6.90;99.90;;;;;;5053258;28;20528;-65
2022/10/12 03:29:45;;;;;;;12.90;5.90;;;6.90;99.90;;;;;;5037469;28;20037;-65
2022/10/12 03:32:10;;;;;;;13.10;5.70;;;6.90;99.90;;;;;;5053656;28;20033;-65
2022/10/12 03:34:36;;;;;;;8.65;5.40;;;6.90;99.90;;;;;;5055270;28;20041;-65
2022/10/12 03:37:02;;;;;;;18.35;5.93;;;6.90;99.90;;;;;;5055286;28;20048;-65
2022/10/12 03:39:27;;;;;;;10.77;5.47;;;6.90;99.90;;;;;;5054465;28;20457;-65
2022/10/12 03:41:53;;;;;;;9.65;4.82;;;6.90;99.90;;;;;;5037229;28;20123;-65
2022/10/12 03:44:18;;;;;;;7.50;4.85;;;6.90;99.90;;;;;;5055022;28;20049;-65
2022/10/12 03:46:44;;;;;;;10.45;4.93;;;6.90;99.90;;;;;;5053215;28;20534;-65
2022/10/12 03:49:10;;;;;;;10.05;5.07;;;6.90;99.90;;;;;;5055470;28;20073;-65
2022/10/12 03:51:35;;;;;;;7.90;4.20;;;6.90;99.90;;;;;;5053777;28;20048;-65
2022/10/12 03:54:01;;;;;;;9.38;4.43;;;6.90;99.90;;;;;;5052800;28;20040;-65
2022/10/12 03:56:27;;;;;;;11.57;5.53;;;6.90;99.90;;;;;;5053809;28;20488;-65
2022/10/12 03:58:52;;;;;;;13.23;5.63;;;6.90;99.90;;;;;;5054857;28;20401;-65
2022/10/12 04:01:18;;;;;;;12.32;5.18;;;6.90;99.90;;;;;;5053974;28;20539;-65
2022/10/12 04:03:43;;;;;;;11.82;4.78;;;6.90;99.90;;;;;;5053726;28;20581;-65
2022/10/12 04:06:09;;;;;;;14.80;5.13;;;6.90;99.90;;;;;;5054961;28;20037;-65
2022/10/12 04:08:35;;;;;;;10.45;5.28;;;6.90;99.90;;;;;;5053868;28;20048;-65
2022/10/12 04:11:00;;;;;;;7.28;4.65;;;6.90;99.90;;;;;;5054611;28;20398;-65
2022/10/12 04:13:26;;;;;;;10.07;5.20;;;6.90;99.90;;;;;;5053282;28;20126;-65
2022/10/12 04:15:52;;;;;;;11.70;5.03;;;6.90;99.90;;;;;;5052349;28;20094;-65
2022/10/12 04:18:17;;;;;;;10.65;5.20;;;6.90;99.90;;;;;;5054651;28;20052;-65
2022/10/12 04:20:46;;;;;;;12.52;6.07;;;6.80;99.90;;;;;;5053469;28;20124;-65
2022/10/12 04:23:12;;;;;;;14.85;6.03;;;6.90;99.90;;;;;;5052180;28;20043;-65
2022/10/12 04:25:38;;;;;;;10.80;5.90;;;6.90;99.90;;;;;;5052014;28;20429;-65
2022/10/12 04:28:04;;;;;;;10.27;4.97;;;6.80;99.90;;;;;;5054267;28;20083;-65
2022/10/12 04:30:29;;;;;;;11.05;5.22;;;6.80;99.90;;;;;;5052398;28;20044;-65
2022/10/12 04:32:55;;;;;;;7.95;4.50;;;6.80;99.90;;;;;;5054255;28;20486;-65
2022/10/12 04:35:21;;;;;;;10.07;4.65;;;6.80;99.90;;;;;;5053762;28;20069;-65
2022/10/12 04:37:46;;;;;;;13.23;4.85;;;6.80;99.90;;;;;;5052450;28;20400;-65
2022/10/12 04:40:12;;;;;;;10.70;5.22;;;6.80;99.90;;;;;;5052806;28;20091;-65
2022/10/12 04:42:38;;;;;;;9.52;5.05;;;6.80;99.90;;;;;;5052268;28;20405;-65
2022/10/12 04:45:04;;;;;;;9.23;4.22;;;6.70;99.90;;;;;;5036132;28;20401;-65
2022/10/12 04:47:29;;;;;;;11.35;5.18;;;6.70;99.90;;;;;;5052900;28;20041;-65
2022/10/12 04:49:55;;;;;;;10.30;5.07;;;6.70;99.90;;;;;;5053016;28;20037;-65
2022/10/12 04:52:21;;;;;;;9.15;4.95;;;6.70;99.90;;;;;;5053619;28;20037;-65
2022/10/12 04:54:46;;;;;;;12.23;5.88;;;6.70;99.90;;;;;;5053765;28;20080;-65
2022/10/12 04:57:12;;;;;;;18.55;7.20;;;6.70;99.90;;;;;;5051700;28;20116;-65
2022/10/12 04:59:37;;;;;;;12.40;5.45;;;6.70;99.90;;;;;;5053005;28;20389;-65
2022/10/12 05:02:03;;;;;;;8.43;5.10;;;6.70;99.90;;;;;;5052637;28;20032;-65
2022/10/12 05:04:29;;;;;;;10.75;5.65;;;6.70;99.90;;;;;;5035111;28;20104;-65
2022/10/12 05:06:55;;;;;;;10.93;5.70;;;6.70;99.90;;;;;;5035887;28;20421;-65
2022/10/12 05:09:20;;;;;;;13.30;5.47;;;6.70;99.90;;;;;;5052234;28;20049;-65
2022/10/12 05:11:47;;;;;;;10.68;5.72;;;6.70;99.90;;;;;;5052699;28;20076;-65
2022/10/12 05:14:12;;;;;;;8.80;5.05;;;6.70;99.90;;;;;;5051895;28;20044;-65
2022/10/12 05:16:38;;;;;;;18.38;7.13;;;6.70;99.90;;;;;;5035780;28;20033;-65
2022/10/12 05:19:04;;;;;;;18.67;8.02;;;6.70;99.90;;;;;;5052406;28;20029;-66
2022/10/12 05:21:29;;;;;;;15.25;7.85;;;6.60;99.90;;;;;;5052190;28;20041;-65
2022/10/12 05:23:55;;;;;;;17.13;8.18;;;6.60;99.90;;;;;;5035329;28;20541;-66
2022/10/12 05:26:21;;;;;;;18.50;8.82;;;6.60;99.90;;;;;;5051118;28;20433;-65
2022/10/12 05:28:46;;;;;;;21.27;10.20;;;6.60;99.90;;;;;;5051734;28;20129;-65
2022/10/12 05:31:12;;;;;;;28.08;12.35;;;6.60;99.90;;;;;;5051813;28;20041;-65
2022/10/12 05:33:37;;;;;;;25.73;11.98;;;6.60;99.90;;;;;;5051075;28;20040;-65
2022/10/12 05:36:03;;;;;;;28.08;12.98;;;6.60;99.90;;;;;;5051606;28;20041;-65
2022/10/12 05:38:29;;;;;;;36.58;15.25;;;6.60;99.90;;;;;;5051912;28;20045;-65
2022/10/12 05:40:55;;;;;;;42.65;18.30;;;6.50;99.90;;;;;;5051081;28;20393;-65
2022/10/12 05:43:20;;;;;;;39.92;17.52;;;6.50;99.90;;;;;;5052709;28;20508;-65
2022/10/12 05:45:46;;;;;;;34.30;14.80;;;6.50;99.90;;;;;;5052187;28;20119;-65
2022/10/12 05:48:12;;;;;;;33.50;15.93;;;6.50;99.90;;;;;;5034950;28;20049;-65
2022/10/12 05:50:37;;;;;;;38.55;15.38;;;6.50;99.90;;;;;;5051988;28;20048;-65
2022/10/12 05:53:03;;;;;;;39.75;15.65;;;6.50;99.90;;;;;;5050745;28;20604;-65
2022/10/12 05:55:28;;;;;;;27.38;13.10;;;6.50;99.90;;;;;;5051648;28;20510;-65
2022/10/12 05:57:54;;;;;;;31.75;13.27;;;6.50;99.90;;;;;;5035030;28;20048;-65
2022/10/12 06:00:20;;;;;;;29.15;13.35;;;6.50;99.90;;;;;;5050801;28;20452;-65
2022/10/12 06:02:46;;;;;;;28.52;13.10;;;6.50;99.90;;;;;;5052442;28;20060;-65
2022/10/12 06:05:12;;;;;;;27.17;10.77;;;6.50;99.90;;;;;;5052482;28;20485;-65
2022/10/12 06:07:38;;;;;;;30.23;12.75;;;6.50;99.90;;;;;;5050648;28;20040;-65
2022/10/12 06:10:04;;;;;;;23.60;11.85;;;6.50;99.90;;;;;;5052386;28;20073;-65
2022/10/12 06:12:30;;;;;;;21.98;8.65;;;6.50;99.90;;;;;;5052205;28;20428;-65
2022/10/12 06:14:55;;;;;;;19.45;9.55;;;6.50;99.90;;;;;;5050099;28;20097;-64
2022/10/12 06:17:21;;;;;;;17.10;8.25;;;6.50;99.90;;;;;;5034545;28;20086;-65
2022/10/12 06:19:46;;;;;;;20.83;8.27;;;6.50;99.90;;;;;;5051300;28;20051;-65
2022/10/12 06:22:12;;;;;;;15.38;6.63;;;6.50;99.90;;;;;;5050222;28;20037;-65
2022/10/12 06:24:38;;;;;;;15.15;5.60;;;6.50;99.90;;;;;;5052160;28;20049;-65
2022/10/12 06:27:04;;;;;;;11.57;5.07;;;6.60;99.90;;;;;;5052053;28;20486;-65
2022/10/12 06:29:30;;;;;;;10.90;5.55;;;6.60;99.90;;;;;;5033440;28;20068;-65
2022/10/12 06:31:55;;;;;;;11.75;5.35;;;6.70;99.90;;;;;;5051053;28;20045;-65
2022/10/12 06:34:21;;;;;;;15.85;6.25;;;6.70;99.90;;;;;;5052215;28;20037;-65
2022/10/12 06:36:48;;;;;;;11.15;5.53;;;6.70;99.90;;;;;;5049819;28;20405;-65
2022/10/12 06:39:13;;;;;;;10.27;5.57;;;6.70;99.90;;;;;;5052008;28;20048;-65
2022/10/12 06:41:39;;;;;;;14.65;6.30;;;6.80;99.90;;;;;;5051002;28;20037;-65
2022/10/12 06:44:05;;;;;;;10.77;5.60;;;6.80;99.90;;;;;;5051334;28;20186;-65
2022/10/12 06:46:31;;;;;;;11.80;5.50;;;6.80;99.90;;;;;;5051853;28;20795;-65
2022/10/12 06:48:57;;;;;;;14.23;6.32;;;6.90;99.90;;;;;;5051482;28;20519;-65
2022/10/12 06:51:22;;;;;;;15.27;6.45;;;6.90;99.90;;;;;;5050034;28;20130;-65
2022/10/12 06:53:48;;;;;;;11.60;6.40;;;6.90;99.90;;;;;;5033949;28;20076;-65
2022/10/12 06:56:14;;;;;;;12.68;6.50;;;7.00;99.90;;;;;;5049843;28;20033;-65
2022/10/12 06:58:39;;;;;;;15.70;6.32;;;7.00;99.90;;;;;;5052230;28;20041;-65
2022/10/12 07:01:07;;;;;;;15.50;6.78;;;7.10;99.90;;;;;;5034044;28;20037;-65
2022/10/12 07:03:33;;;;;;;16.75;7.22;;;7.10;99.90;;;;;;5049701;28;20053;-65
2022/10/12 07:06:10;;;;;;;17.95;6.68;;;7.20;99.90;;;;;;5050391;28;20053;-65
2022/10/12 07:08:36;;;;;;;14.98;6.63;;;7.20;99.90;;;;;;5034113;28;20070;-65
2022/10/12 07:11:06;;;;;;;13.02;7.28;;;7.30;99.90;;;;;;5049604;28;20576;-65
2022/10/12 07:13:32;;;;;;;14.07;7.25;;;7.40;99.90;;;;;;5050315;28;20045;-65
2022/10/12 07:15:58;;;;;;;17.73;7.22;;;7.40;99.90;;;;;;5033751;28;20060;-65
2022/10/12 07:18:24;;;;;;;12.63;6.90;;;7.40;99.90;;;;;;5050912;28;20068;-65
2022/10/12 07:20:49;;;;;;;16.80;7.85;;;7.50;99.90;;;;;;5051666;28;20444;-65
2022/10/12 07:23:15;;;;;;;15.98;7.55;;;7.50;99.90;;;;;;5051463;28;20047;-65
2022/10/12 07:25:48;;;;;;;14.45;7.53;;;7.60;99.90;;;;;;5050937;28;20440;-65
2022/10/12 07:28:14;;;;;;;13.68;7.32;;;7.60;99.90;;;;;;5051739;28;20059;-65
2022/10/12 07:30:40;;;;;;;15.40;6.93;;;7.70;99.90;;;;;;5050643;28;20432;-65
2022/10/12 07:33:05;;;;;;;12.13;6.82;;;7.70;99.90;;;;;;5049254;28;20041;-65
2022/10/12 07:35:31;;;;;;;21.17;7.80;;;7.80;99.90;;;;;;5050949;28;20041;-65
2022/10/12 07:37:56;;;;;;;17.60;7.10;;;7.80;99.90;;;;;;5051317;28;20055;-65
2022/10/12 07:40:22;;;;;;;17.08;7.18;;;7.90;99.90;;;;;;5082623;28;20040;-65
2022/10/12 07:42:48;;;;;;;22.20;8.13;;;8.00;99.90;;;;;;5083853;28;20041;-64
2022/10/12 07:45:13;;;;;;;10.63;6.32;;;8.10;99.90;;;;;;5049841;28;20040;-64
2022/10/12 07:47:39;;;;;;;15.70;6.88;;;8.20;99.90;;;;;;5038220;28;20049;-65
2022/10/12 07:50:06;;;;;;;12.63;6.45;;;8.20;99.90;;;;;;5028516;28;20130;-65
2022/10/12 07:52:31;;;;;;;18.15;6.45;;;8.30;99.90;;;;;;5080260;28;20087;-66
2022/10/12 07:54:57;;;;;;;13.48;6.18;;;8.40;99.90;;;;;;5049145;28;20470;-65
2022/10/12 07:57:23;;;;;;;18.60;6.82;;;8.50;99.90;;;;;;5080392;28;20124;-65
2022/10/12 07:59:48;;;;;;;12.55;6.68;;;8.50;99.90;;;;;;5077585;28;20037;-64
2022/10/12 08:02:14;;;;;;;14.70;6.68;;;8.60;99.90;;;;;;5052193;28;20045;-65
2022/10/12 08:04:39;;;;;;;12.52;6.72;;;8.70;99.90;;;;;;5084980;28;20048;-64
2022/10/12 08:07:05;;;;;;;10.68;6.22;;;8.80;99.90;;;;;;5083832;28;20049;-65
2022/10/12 08:09:31;;;;;;;11.88;6.60;;;8.80;99.90;;;;;;5051326;28;20931;-64
2022/10/12 08:11:56;;;;;;;15.30;6.10;;;8.90;99.90;;;;;;5051682;28;20508;-65
2022/10/12 08:14:22;;;;;;;13.10;6.00;;;9.00;99.90;;;;;;5083115;28;20053;-65
2022/10/12 08:16:48;;;;;;;17.38;7.07;;;9.10;99.90;;;;;;5050925;28;20115;-66
2022/10/12 08:19:14;;;;;;;14.85;6.43;;;9.20;99.90;;;;;;5067275;28;20036;-65
2022/10/12 08:21:41;;;;;;;14.13;6.65;;;9.30;99.90;;;;;;5050128;28;20048;-65
2022/10/12 08:24:11;;;;;;;12.18;5.93;;;9.40;99.90;;;;;;5049758;28;20122;-65
2022/10/12 08:26:37;;;;;;;13.85;5.72;;;9.40;99.90;;;;;;5050791;28;20489;-65
2022/10/12 08:29:04;;;;;;;18.88;5.85;;;9.50;99.90;;;;;;5050907;28;20049;-65
2022/10/12 08:31:30;;;;;;;16.80;6.05;;;9.60;99.90;;;;;;5051883;28;20506;-64
2022/10/12 08:33:57;;;;;;;13.40;6.32;;;9.70;99.90;;;;;;5033780;28;20401;-65
2022/10/12 08:36:23;;;;;;;15.55;6.40;;;9.70;99.90;;;;;;5032130;28;20033;-65
2022/10/12 08:38:54;;;;;;;14.15;5.78;;;9.80;99.90;;;;;;5050060;28;20037;-65
2022/10/12 08:41:19;;;;;;;15.27;6.68;;;9.90;99.90;;;;;;5066553;28;20071;-65
2022/10/12 08:44:26;;;;;;;16.42;5.40;;;9.90;99.90;;;;;;5047323;28;20033;-65
2022/10/12 08:47:13;;;;;;;14.60;5.45;;;10.00;99.90;;;;;;5033064;28;20429;-65
2022/10/12 08:49:41;;;;;;;14.95;6.20;;;10.10;99.90;;;;;;5049128;28;20045;-65
2022/10/12 08:52:19;;;;;;;13.07;5.60;;;10.10;99.90;;;;;;5050415;28;20161;-65
2022/10/12 08:54:45;;;;;;;13.02;5.50;;;10.20;99.90;;;;;;5050294;28;20045;-65
2022/10/12 08:57:18;;;;;;;14.48;5.00;;;10.20;99.90;;;;;;5051116;28;20084;-65
2022/10/12 08:59:45;;;;;;;14.52;5.07;;;10.30;99.90;;;;;;5065480;28;20103;-65
2022/10/12 09:02:37;;;;;;;14.43;5.38;;;10.40;99.90;;;;;;5066916;28;20033;-66
2022/10/12 09:05:12;;;;;;;11.85;4.32;;;10.50;99.90;;;;;;5045537;28;20029;-65
2022/10/12 09:07:40;;;;;;;;;;;10.50;99.90;;;;;;5053977;28;20060;-65
2022/10/12 09:10:13;;;;;;;12.13;4.88;;;10.60;99.90;;;;;;5052645;28;19917;-65
2022/10/12 09:13:08;;;;;;;10.82;5.28;;;10.70;99.90;;;;;;5052046;28;20072;-65
2022/10/12 09:15:57;;;;;;;13.18;4.38;;;10.80;99.90;;;;;;5008080;28;20085;-65
2022/10/12 09:18:45;;;;;;;12.88;4.35;;;10.90;99.90;;;;;;5035747;28;20116;-65
2022/10/12 09:21:19;;;;;;;23.08;5.18;;;11.10;99.90;;;;;;5053413;28;20037;-64
2022/10/12 09:23:46;;;;;;;14.57;4.85;;;11.20;99.90;;;;;;5084719;28;20060;-64
2022/10/12 09:26:12;;;;;;;18.10;4.30;;;11.20;99.90;;;;;;5051291;28;20045;-64
2022/10/12 09:28:54;;;;;;;11.13;4.90;;;11.30;99.90;;;;;;5053012;28;20102;-64
2022/10/12 09:31:44;;;;;;;16.48;4.90;;;11.30;99.90;;;;;;5051426;28;20036;-64
2022/10/12 09:34:10;;;;;;;12.55;4.70;;;11.40;99.90;;;;;;5082923;28;20041;-65
2022/10/12 09:36:38;;;;;;;15.88;5.53;;;11.50;99.90;;;;;;5084474;28;20040;-65
2022/10/12 09:39:10;;;;;;;11.25;4.70;;;11.50;99.90;;;;;;5052098;28;20037;-65
2022/10/12 09:41:42;;;;;;;12.40;4.55;;;11.60;99.90;;;;;;5051407;28;20102;-65
2022/10/12 09:44:32;;;;;;;12.38;4.65;;;11.70;99.90;;;;;;5052714;28;20045;-66
2022/10/12 09:47:00;;;;;;;12.65;4.35;;;11.80;99.90;;;;;;5024076;28;20482;-65
2022/10/12 09:49:43;;;;;;;13.30;5.25;;;11.80;99.90;;;;;;5084867;28;20059;-65
2022/10/12 09:52:10;;;;;;;10.48;4.75;;;11.90;99.90;;;;;;5051851;28;20047;-65
2022/10/12 09:54:44;;;;;;;16.80;5.38;;;12.00;99.90;;;;;;5033938;28;20044;-66
2022/10/12 09:57:16;;;;;;;14.75;4.88;;;12.10;99.90;;;;;;5051013;28;20394;-65
2022/10/12 09:59:43;;;;;;;12.02;4.75;;;12.20;99.90;;;;;;5051395;28;20049;-66
2022/10/12 10:02:12;;;;;;;16.98;6.32;;;12.30;99.90;;;;;;5052585;28;20110;-65
2022/10/12 10:04:38;;;;;;;13.98;4.95;;;12.30;99.90;;;;;;5051688;28;20052;-65
2022/10/12 10:07:26;;;;;;;12.43;5.20;;;12.30;99.90;;;;;;5066919;28;20049;-65
2022/10/12 10:10:15;;;;;;;16.63;4.93;;;12.40;99.90;;;;;;5052141;28;20107;-65
2022/10/12 10:12:47;;;;;;;16.58;4.72;;;12.40;99.90;;;;;;5040771;28;20102;-65
2022/10/12 10:15:21;;;;;;;15.48;5.18;;;12.50;99.90;;;;;;5051815;28;20052;-65
2022/10/12 10:17:52;;;;;;;20.48;5.03;;;12.50;99.90;;;;;;5034368;28;20037;-65
2022/10/12 10:20:43;;;;;;;10.93;4.45;;;12.60;99.90;;;;;;5050076;28;20075;-65
2022/10/12 10:23:26;;;;;;;13.20;4.82;;;12.60;99.90;;;;;;5047052;28;20057;-65
2022/10/12 10:26:11;;;;;;;14.70;4.80;;;12.70;99.90;;;;;;5083121;28;20156;-64
2022/10/12 10:28:39;;;;;;;9.63;3.80;;;12.70;99.90;;;;;;5081799;28;20045;-64
2022/10/12 10:31:20;;;;;;;14.02;3.75;;;12.80;99.90;;;;;;5033105;28;20040;-64
2022/10/12 10:34:18;;;;;;;11.48;3.78;;;12.90;99.90;;;;;;5049018;28;20052;-64
2022/10/12 10:37:05;;;;;;;11.65;4.28;;;12.90;99.90;;;;;;5049510;28;20115;-64
2022/10/12 10:39:52;;;;;;;18.95;4.20;;;13.00;99.90;;;;;;5047010;28;20090;-64
2022/10/12 10:42:38;;;;;;;14.02;3.60;;;13.00;99.90;;;;;;5029852;28;20041;-64
2022/10/12 10:46:03;;;;;;;9.85;3.13;;;13.10;99.90;;;;;;5042582;28;20095;-64
2022/10/12 10:48:32;;;;;;;11.70;3.40;;;13.10;99.90;;;;;;5035618;28;20085;-64
2022/10/12 10:51:01;;;;;;;12.25;4.00;;;13.20;99.90;;;;;;5028300;28;20122;-64
2022/10/12 10:53:41;;;;;;;13.77;3.78;;;13.20;99.90;;;;;;5047454;28;20048;-64
2022/10/12 10:56:10;;;;;;;13.30;3.50;;;13.30;99.90;;;;;;5047808;28;20804;-64
2022/10/12 10:58:40;;;;;;;8.63;2.88;;;13.30;99.90;;;;;;5050063;28;20052;-64
2022/10/12 11:01:23;;;;;;;14.90;3.38;;;13.40;99.90;;;;;;5048169;28;20040;-64
2022/10/12 11:04:03;;;;;;;11.18;3.30;;;13.40;99.90;;;;;;5046560;28;20051;-64
2022/10/12 11:06:41;;;;;;;12.30;3.75;;;13.50;99.90;;;;;;5028212;28;20127;-64
2022/10/12 11:09:14;;;;;;;12.48;3.88;;;13.50;99.90;;;;;;5047111;28;20041;-64
2022/10/12 11:11:42;;;;;;;13.90;3.72;;;13.60;99.90;;;;;;5064281;28;20052;-64
2022/10/12 11:14:20;;;;;;;9.00;3.83;;;13.60;99.90;;;;;;5080529;28;20053;-64
2022/10/12 11:16:55;;;;;;;14.88;3.95;;;13.60;99.90;;;;;;5047194;28;20409;-64
2022/10/12 11:19:42;;;;;;;11.52;3.25;;;13.70;99.90;;;;;;5048748;28;20033;-65
2022/10/12 11:22:29;;;;;;;8.30;3.33;;;13.70;99.90;;;;;;5066807;28;20037;-64
2022/10/12 11:25:07;;;;;;;14.07;3.58;;;13.70;99.90;;;;;;5046308;28;20089;-62
2022/10/12 11:27:35;;;;;;;10.63;3.67;;;13.80;99.90;;;;;;5049412;28;20045;-61
2022/10/12 11:30:05;;;;;;;13.48;3.60;;;13.90;99.90;;;;;;5045303;28;20116;-64
2022/10/12 11:32:35;;;;;;;15.35;3.15;;;13.90;99.90;;;;;;5048370;28;20996;-63
2022/10/12 11:35:04;;;;;;;11.07;2.63;;;13.90;99.90;;;;;;5050646;28;20080;-63
2022/10/12 11:37:38;;;;;;;9.82;3.28;;;14.00;99.90;;;;;;5054429;28;20047;-63
2022/10/12 11:40:15;;;;;;;11.07;2.70;;;14.00;99.90;;;;;;5054303;28;20052;-63
2022/10/12 11:42:41;;;;;;;11.88;3.30;;;14.10;99.90;;;;;;5037862;28;20055;-63
2022/10/12 11:45:23;;;;;;;14.98;3.45;;;14.10;99.90;;;;;;5053281;28;20525;-63
2022/10/12 11:47:58;;;;;;;11.85;3.25;;;14.10;99.90;;;;;;5053887;28;20036;-63
2022/10/12 11:50:44;;;;;;;15.02;3.20;;;14.20;99.90;;;;;;5054104;28;20386;-63
2022/10/12 11:53:49;;;;;;;8.10;2.92;;;14.20;99.90;;;;;;5053554;28;20049;-63
2022/10/12 11:56:33;;;;;;;10.13;2.80;;;14.20;99.90;;;;;;5064881;28;20044;-63
2022/10/12 11:59:08;;;;;;;8.15;3.00;;;14.20;99.90;;;;;;5086347;28;20037;-63
2022/10/12 12:01:45;;;;;;;9.00;3.03;;;14.30;99.90;;;;;;5053606;28;20045;-63
2022/10/12 12:04:26;;;;;;;12.75;3.45;;;14.20;99.90;;;;;;5053757;28;20049;-63
2022/10/12 12:06:58;;;;;;;12.38;3.78;;;14.30;99.90;;;;;;5052870;28;20041;-63
2022/10/12 12:09:41;;;;;;;14.30;3.67;;;14.30;99.90;;;;;;5053469;28;20083;-63
2022/10/12 12:12:28;;;;;;;11.75;3.20;;;14.30;99.90;;;;;;5054813;28;20036;-63
2022/10/12 12:14:53;;;;;;;10.82;3.28;;;14.30;99.90;;;;;;5053632;28;20037;-63
2022/10/12 12:17:19;;;;;;;15.65;3.15;;;14.30;99.90;;;;;;5070009;28;20103;-63
2022/10/12 12:19:53;;;;;;;9.38;4.32;;;14.30;99.90;;;;;;5085819;28;20036;-63
2022/10/12 12:22:20;;;;;;;11.95;3.55;;;14.40;99.90;;;;;;5054586;28;20036;-63
2022/10/12 12:25:25;;;;;;;13.50;3.55;;;14.40;99.90;;;;;;5086652;28;20053;-63
2022/10/12 12:28:21;;;;;;;13.60;3.58;;;14.40;99.90;;;;;;5053163;28;20053;-63
2022/10/12 12:31:04;;;;;;;8.25;2.53;;;14.40;99.90;;;;;;5049124;28;20136;-63
2022/10/12 12:33:34;;;;;;;13.63;3.60;;;14.40;99.90;;;;;;5052974;28;20052;-63
2022/10/12 12:36:07;;;;;;;8.98;3.28;;;14.40;99.90;;;;;;5053650;28;20421;-63
2022/10/12 12:38:34;;;;;;;9.20;3.78;;;14.50;99.90;;;;;;5069582;28;20037;-63
2022/10/12 12:41:04;;;;;;;14.00;3.70;;;14.40;99.90;;;;;;5053355;28;20723;-63
2022/10/12 12:43:30;;;;;;;8.23;2.88;;;14.40;99.90;;;;;;5054123;28;20049;-62
2022/10/12 12:46:00;;;;;;;11.98;3.15;;;14.50;99.90;;;;;;5085843;28;20120;-63
2022/10/12 12:48:38;;;;;;;10.35;3.25;;;14.50;99.90;;;;;;5053408;28;20390;-63
2022/10/12 12:51:10;;;;;;;13.52;3.20;;;14.40;99.90;;;;;;5053955;28;20485;-63
2022/10/12 12:53:39;;;;;;;9.98;3.65;;;14.50;99.90;;;;;;5054009;28;20375;-63
2022/10/12 12:56:17;;;;;;;9.30;3.03;;;14.50;99.90;;;;;;5052067;28;20421;-63
2022/10/12 12:59:20;;;;;;;14.35;3.42;;;14.50;99.90;;;;;;5052623;28;20479;-63
2022/10/12 13:02:20;;;;;;;12.43;3.03;;;14.50;99.90;;;;;;5069689;28;20051;-63
2022/10/12 13:05:23;;;;;;;8.45;2.63;;;14.50;99.90;;;;;;5069138;28;20513;-63
2022/10/12 13:07:58;;;;;;;10.45;2.58;;;14.50;99.90;;;;;;5052517;28;20048;-63